Time;durP1;ratioP1;P1;durP2;ratioP2;P2;SDS_P1;SDS_P2;PMS_P1;PMS_P2;Temp;Humidity;BMP_temperature;BMP_pressure;BME280_temperature;BME280_humidity;BME280_pressure;Samples;Min_cycle;Max_cycle;Signal;HPM_P1;HPM_P2
2022/12/03 00:01:37;;;;;;;23.90;15.02;;;;;;;2.26;100.00;102138.63;5069747;28;20075;-69
2022/12/03 00:04:03;;;;;;;25.90;13.68;;;;;;;2.26;100.00;102136.78;5072299;28;20086;-69
2022/12/03 00:06:28;;;;;;;28.35;15.27;;;;;;;2.25;100.00;102124.44;5071727;28;20021;-68
2022/12/03 00:08:53;;;;;;;25.83;14.88;;;;;;;2.29;100.00;102131.22;5071018;28;20074;-69
2022/12/03 00:11:19;;;;;;;26.80;15.43;;;;;;;2.28;100.00;102132.19;5085148;28;20055;-69
2022/12/03 00:13:44;;;;;;;25.38;14.73;;;;;;;2.29;100.00;102128.53;5090905;28;20032;-68
2022/12/03 00:16:09;;;;;;;26.27;15.32;;;;;;;2.29;100.00;102128.53;5095190;28;20070;-70
2022/12/03 00:18:35;;;;;;;27.77;16.58;;;;;;;2.33;100.00;102131.75;5092571;28;20067;-69
2022/12/03 00:21:00;;;;;;;26.00;14.48;;;;;;;2.34;100.00;102127.25;5075202;28;20120;-70
2022/12/03 00:23:25;;;;;;;26.33;14.73;;;;;;;2.30;100.00;102121.34;5075559;28;20040;-68
2022/12/03 00:25:51;;;;;;;26.23;14.70;;;;;;;2.32;100.00;102123.88;5075819;28;20031;-69
2022/12/03 00:28:16;;;;;;;26.10;15.23;;;;;;;2.30;100.00;102114.19;5088912;28;20040;-70
2022/12/03 00:30:41;;;;;;;23.95;14.40;;;;;;;2.33;100.00;102107.72;5075061;28;20043;-69
2022/12/03 00:33:06;;;;;;;27.83;15.02;;;;;;;2.33;100.00;102114.91;5075426;28;20115;-70
2022/12/03 00:35:32;;;;;;;25.45;14.60;;;;;;;2.30;100.00;102110.66;5075364;28;20062;-70
2022/12/03 00:37:57;;;;;;;25.65;15.55;;;;;;;2.30;100.00;102111.50;5075784;28;20089;-69
2022/12/03 00:40:22;;;;;;;26.15;15.43;;;;;;;2.29;100.00;102117.00;5074275;28;20388;-69
2022/12/03 00:42:47;;;;;;;27.67;15.07;;;;;;;2.29;100.00;102108.97;5079960;28;20040;-69
2022/12/03 00:45:13;;;;;;;26.35;15.60;;;;;;;2.28;100.00;102107.28;5055355;28;20040;-70
2022/12/03 00:47:38;;;;;;;28.52;16.42;;;;;;;2.27;100.00;102105.63;5054743;28;20029;-69
2022/12/03 00:50:05;;;;;;;29.52;16.02;;;;;;;2.29;100.00;102104.50;5067647;28;20047;-68
2022/12/03 00:52:30;;;;;;;27.45;15.98;;;;;;;2.32;100.00;102106.03;5094958;28;20028;-69
2022/12/03 00:54:55;;;;;;;26.52;15.65;;;;;;;2.33;100.00;102109.56;5095645;28;20109;-69
2022/12/03 00:57:21;;;;;;;29.20;16.27;;;;;;;2.33;100.00;102107.72;5095246;28;20031;-69
2022/12/03 00:59:46;;;;;;;30.13;15.95;;;;;;;2.34;100.00;102106.75;5083071;28;20476;-69
2022/12/03 01:02:11;;;;;;;28.02;15.50;;;;;;;2.36;100.00;102109.28;5071769;28;20043;-69
2022/12/03 01:04:37;;;;;;;27.20;15.63;;;;;;;2.37;100.00;102111.81;5074875;28;20400;-69
2022/12/03 01:07:02;;;;;;;25.52;15.10;;;;;;;2.34;100.00;102113.91;5089366;28;20039;-69
2022/12/03 01:09:27;;;;;;;27.77;15.93;;;;;;;2.30;100.00;102110.66;5074722;28;20027;-69
2022/12/03 01:11:53;;;;;;;27.92;16.42;;;;;;;2.30;100.00;102116.00;5075221;28;20081;-70
2022/12/03 01:14:19;;;;;;;29.23;16.17;;;;;;;2.32;100.00;102113.19;5074945;28;20420;-69
2022/12/03 01:16:45;;;;;;;27.58;16.45;;;;;;;2.32;100.00;102106.03;5073302;28;20043;-68
2022/12/03 01:19:15;;;;;;;30.08;16.70;;;;;;;2.33;100.00;102101.53;5073200;28;20098;-70
2022/12/03 01:21:45;;;;;;;28.73;16.73;;;;;;;2.36;100.00;102104.78;5074676;28;20025;-69
2022/12/03 01:24:11;;;;;;;29.63;15.68;;;;;;;2.36;100.00;102109.28;5075301;28;20123;-69
2022/12/03 01:26:36;;;;;;;28.80;16.95;;;;;;;2.35;100.00;102107.59;5074599;28;20510;-69
2022/12/03 01:29:03;;;;;;;30.23;17.67;;;;;;;2.32;100.00;102110.53;5088745;28;20052;-68
2022/12/03 01:34:12;;;;;;;29.73;16.20;;;;;;;2.33;100.00;102109.56;5075301;28;20043;-70
2022/12/03 01:36:37;;;;;;;28.88;17.00;;;;;;;2.29;100.00;102104.50;5095816;28;20040;-68
2022/12/03 01:39:03;;;;;;;29.77;17.20;;;;;;;2.30;100.00;102106.16;5096763;28;20020;-68
2022/12/03 01:41:30;;;;;;;31.08;17.65;;;;;;;2.33;100.00;102107.72;5087303;28;20090;-69
2022/12/03 01:43:57;;;;;;;30.23;16.85;;;;;;;2.33;100.00;102098.88;5074092;28;20056;-68
2022/12/03 01:46:27;;;;;;;30.00;16.83;;;;;;;2.33;100.00;102105.06;5075947;28;20107;-69
2022/12/03 01:48:54;;;;;;;30.60;16.42;;;;;;;2.35;100.00;102099.56;5075847;28;20040;-68
2022/12/03 01:51:20;;;;;;;32.22;16.95;;;;;;;2.36;100.00;102087.91;5074261;28;20425;-68
2022/12/03 01:53:46;;;;;;;31.05;17.48;;;;;;;2.35;100.00;102097.72;5089128;28;20024;-69
2022/12/03 01:56:14;;;;;;;32.55;18.05;;;;;;;2.35;100.00;102094.22;5073643;28;20021;-67
2022/12/03 01:58:40;;;;;;;34.30;17.92;;;;;;;2.38;100.00;102091.28;5071095;28;20097;-68
2022/12/03 02:01:11;;;;;;;29.38;17.17;;;;;;;2.38;100.00;102089.44;5069545;28;20033;-69
2022/12/03 02:03:37;;;;;;;34.55;17.48;;;;;;;2.38;100.00;102096.63;5087606;28;20220;-69
2022/12/03 02:06:02;;;;;;;30.92;17.02;;;;;;;2.39;100.00;102092.97;5093781;28;20039;-70
2022/12/03 02:08:34;;;;;;;33.15;17.98;;;;;;;2.38;100.00;102097.44;5078107;28;20027;-70
2022/12/03 02:11:04;;;;;;;32.90;17.30;;;;;;;2.35;100.00;102089.72;5060547;28;20093;-70
2022/12/03 02:13:30;;;;;;;33.60;18.38;;;;;;;2.36;100.00;102098.59;5072377;28;20032;-70
2022/12/03 02:15:57;;;;;;;30.85;17.67;;;;;;;2.39;100.00;102087.63;5073588;28;20064;-69
2022/12/03 02:18:22;;;;;;;33.35;18.13;;;;;;;2.42;100.00;102090.00;5070836;28;20383;-69
2022/12/03 02:21:15;;;;;;;33.88;18.02;;;;;;;2.45;100.00;102092.41;5072926;28;20035;-70
2022/12/03 02:23:58;;;;;;;31.52;17.88;;;;;;;2.45;100.00;102092.41;5071403;28;20040;-69
2022/12/03 02:26:24;;;;;;;32.35;17.73;;;;;;;2.42;100.00;102090.00;5088945;28;20124;-69
2022/12/03 02:28:49;;;;;;;32.42;18.63;;;;;;;2.41;100.00;102082.97;5075850;28;20551;-69
2022/12/03 02:31:15;;;;;;;32.00;17.80;;;;;;;2.41;100.00;102080.31;5088881;28;20028;-69
2022/12/03 02:33:40;;;;;;;32.33;18.05;;;;;;;2.41;100.00;102082.97;5073001;28;20107;-70
2022/12/03 02:36:05;;;;;;;28.80;17.33;;;;;;;2.41;100.00;102082.97;5072951;28;20024;-69
2022/12/03 02:38:33;;;;;;;30.70;17.60;;;;;;;2.40;100.00;102079.47;5071323;28;20111;-69
2022/12/03 02:41:03;;;;;;;32.15;17.48;;;;;;;2.38;100.00;102078.75;5073330;28;20039;-69
2022/12/03 02:43:29;;;;;;;30.83;17.27;;;;;;;2.39;100.00;102080.44;5081521;28;20451;-70
2022/12/03 02:45:58;;;;;;;33.33;17.75;;;;;;;2.39;100.00;102082.28;5052810;28;20052;-70
2022/12/03 02:48:43;;;;;;;31.20;17.80;;;;;;;2.39;100.00;102082.28;5062075;28;20028;-69
2022/12/03 02:51:09;;;;;;;31.63;17.33;;;;;;;2.36;100.00;102072.72;5072028;28;20102;-68
2022/12/03 02:53:41;;;;;;;32.53;18.25;;;;;;;2.35;100.00;102073.69;5072810;28;20032;-69
2022/12/03 02:56:07;;;;;;;34.38;18.20;;;;;;;2.38;100.00;102077.91;5072025;28;20132;-69
2022/12/03 02:58:33;;;;;;;32.35;17.48;;;;;;;2.35;100.00;102071.00;5079181;28;20032;-69
2022/12/03 03:01:01;;;;;;;34.40;18.42;;;;;;;2.38;100.00;102075.25;5090746;28;20034;-70
2022/12/03 03:03:28;;;;;;;31.17;17.88;;;;;;;2.37;100.00;102071.75;5093077;28;20076;-70
2022/12/03 03:05:57;;;;;;;32.85;18.75;;;;;;;2.36;100.00;102071.88;5092767;28;20071;-68
2022/12/03 03:08:24;;;;;;;30.10;17.70;;;;;;;2.37;100.00;102076.22;5081602;28;20035;-68
2022/12/03 03:10:50;;;;;;;31.83;18.13;;;;;;;2.37;100.00;102069.06;5072510;28;20024;-67
2022/12/03 03:13:18;;;;;;;32.55;18.77;;;;;;;2.37;100.00;102062.84;5071248;28;20069;-69
2022/12/03 03:15:43;;;;;;;32.58;17.75;;;;;;;2.38;100.00;102069.91;5072772;28;20101;-68
2022/12/03 03:18:11;;;;;;;34.65;19.70;;;;;;;2.34;100.00;102064.00;5071269;28;20506;-69
2022/12/03 03:20:36;;;;;;;34.88;19.35;;;;;;;2.32;100.00;102057.94;5072092;28;20077;-69
2022/12/03 03:23:13;;;;;;;33.80;18.48;;;;;;;2.33;100.00;102058.81;5072595;28;20456;-68
2022/12/03 03:25:41;;;;;;;32.75;17.92;;;;;;;2.32;100.00;102060.63;5072296;28;20034;-68
2022/12/03 03:28:06;;;;;;;33.88;18.67;;;;;;;2.35;100.00;102059.50;5069959;28;20041;-69
2022/12/03 03:30:34;;;;;;;34.72;18.75;;;;;;;2.34;100.00;102052.47;5072627;28;20155;-68
2022/12/03 03:32:59;;;;;;;35.15;18.85;;;;;;;2.29;100.00;102048.41;5072568;28;20032;-70
2022/12/03 03:35:25;;;;;;;33.28;19.52;;;;;;;2.28;100.00;102049.38;5071185;28;20459;-69
2022/12/03 03:37:55;;;;;;;35.67;19.35;;;;;;;2.30;100.00;102047.41;5070904;28;20028;-69
2022/12/03 03:40:20;;;;;;;32.55;18.20;;;;;;;2.29;100.00;102047.53;5072675;28;20069;-68
2022/12/03 03:42:47;;;;;;;33.65;19.15;;;;;;;2.28;100.00;102049.38;5073583;28;20142;-69
2022/12/03 03:45:13;;;;;;;33.45;18.83;;;;;;;2.28;100.00;102052.06;5092848;28;20038;-68
2022/12/03 03:47:39;;;;;;;33.78;19.05;;;;;;;2.29;100.00;102044.88;5088084;28;20044;-68
2022/12/03 03:50:07;;;;;;;30.58;18.33;;;;;;;2.30;100.00;102038.56;5073048;28;20500;-69
2022/12/03 03:52:33;;;;;;;34.55;20.05;;;;;;;2.33;100.00;102045.44;5076043;28;20472;-68
2022/12/03 03:54:58;;;;;;;32.58;18.77;;;;;;;2.36;100.00;102050.50;5076048;28;20510;-70
2022/12/03 03:57:23;;;;;;;35.25;19.95;;;;;;;2.35;100.00;102049.66;5073698;28;20158;-68
2022/12/03 03:59:49;;;;;;;32.78;19.08;;;;;;;2.32;100.00;102044.59;5075990;28;20119;-68
2022/12/03 04:02:19;;;;;;;33.88;19.20;;;;;;;2.32;100.00;102043.75;5075125;28;20475;-70
2022/12/03 04:04:44;;;;;;;33.10;18.52;;;;;;;2.34;100.00;102049.78;5096183;28;20032;-69
2022/12/03 04:07:10;;;;;;;31.50;19.17;;;;;;;2.34;100.00;102042.63;5096322;28;20382;-68
2022/12/03 04:09:35;;;;;;;31.83;18.10;;;;;;;2.34;100.00;102037.28;5076454;28;20029;-68
2022/12/03 04:14:44;;;;;;;36.20;18.95;;;;;;;2.34;100.00;102037.28;5075521;28;20092;-69
2022/12/03 04:17:09;;;;;;;33.58;19.05;;;;;;;2.35;100.00;102040.81;5074566;28;20115;-67
2022/12/03 04:19:35;;;;;;;33.47;19.67;;;;;;;2.35;100.00;102038.97;5074225;28;20028;-67
2022/12/03 04:24:44;;;;;;;32.88;19.05;;;;;;;2.34;100.00;102041.78;5075336;28;20043;-68
2022/12/03 04:29:53;;;;;;;34.42;19.65;;;;;;;2.33;100.00;102048.97;5074728;28;20047;-68
2022/12/03 04:37:46;;;;;;;32.33;19.13;;;;;;;2.36;100.00;102039.81;5073850;28;20123;-69
2022/12/03 04:42:55;;;;;;;32.47;19.27;;;;;;;2.34;100.00;102037.28;5075066;28;20047;-69
2022/12/03 04:45:21;;;;;;;37.08;20.48;;;;;;;2.28;100.00;102038.69;5091060;28;20024;-68
2022/12/03 04:47:46;;;;;;;34.75;19.77;;;;;;;2.27;100.00;102036.16;5082877;28;20467;-69
2022/12/03 04:50:11;;;;;;;33.67;19.88;;;;;;;2.26;100.00;102035.31;5073901;28;20032;-70
2022/12/03 04:52:36;;;;;;;35.25;20.20;;;;;;;2.26;100.00;102031.78;5075268;28;20430;-69
2022/12/03 04:55:02;;;;;;;31.38;19.38;;;;;;;2.26;100.00;102027.28;5075012;28;20111;-67
2022/12/03 04:57:27;;;;;;;33.08;19.52;;;;;;;2.30;100.00;102035.88;5074931;28;20430;-68
2022/12/03 04:59:52;;;;;;;34.83;20.15;;;;;;;2.32;100.00;102028.56;5089265;28;20037;-68
2022/12/03 05:02:17;;;;;;;33.00;18.67;;;;;;;2.34;100.00;102020.41;5082032;28;20065;-68
2022/12/03 05:04:43;;;;;;;34.35;19.15;;;;;;;2.36;100.00;102024.63;5095351;28;20035;-69
2022/12/03 05:07:08;;;;;;;34.67;19.88;;;;;;;2.37;100.00;102026.31;5095348;28;20028;-69
2022/12/03 05:09:33;;;;;;;34.70;19.45;;;;;;;2.37;100.00;102022.78;5077142;28;20048;-69
2022/12/03 05:11:59;;;;;;;36.13;20.35;;;;;;;2.34;100.00;102023.94;5074750;28;20479;-68
2022/12/03 05:14:24;;;;;;;35.63;19.95;;;;;;;2.35;100.00;102020.25;5074890;28;20082;-67
2022/12/03 05:16:49;;;;;;;33.92;19.38;;;;;;;2.35;100.00;102009.56;5072296;28;20039;-68
2022/12/03 05:19:14;;;;;;;33.88;19.20;;;;;;;2.35;100.00;102012.25;5073152;28;20044;-69
2022/12/03 05:21:40;;;;;;;34.08;19.77;;;;;;;2.35;100.00;102014.91;5074442;28;20103;-69
2022/12/03 05:24:05;;;;;;;35.78;19.63;;;;;;;2.36;100.00;102013.09;5074602;28;20390;-68
2022/12/03 05:26:30;;;;;;;35.78;20.38;;;;;;;2.36;100.00;102013.94;5074694;28;20074;-68
2022/12/03 05:28:56;;;;;;;36.25;20.73;;;;;;;2.34;100.00;102013.25;5072857;28;20055;-68
2022/12/03 05:31:21;;;;;;;34.92;19.35;;;;;;;2.36;100.00;102013.09;5073491;28;20429;-69
2022/12/03 05:33:46;;;;;;;34.72;20.48;;;;;;;2.35;100.00;102017.59;5074022;28;20423;-68
2022/12/03 05:36:11;;;;;;;35.58;20.27;;;;;;;2.34;100.00;102009.72;5074588;28;20111;-68
2022/12/03 05:38:37;;;;;;;36.33;20.77;;;;;;;2.29;100.00;102013.69;5073220;28;20031;-68
2022/12/03 05:42:52;;;;;;;38.50;20.88;;;;;;;2.30;100.00;102009.16;5089796;28;20047;-69
2022/12/03 05:43:48;;;;;;;36.60;19.50;;;;;;;2.35;100.00;102006.91;5073876;28;20041;-69
2022/12/03 05:46:13;;;;;;;34.58;20.25;;;;;;;2.35;100.00;102006.06;5081140;28;20035;-69
2022/12/03 05:48:38;;;;;;;34.67;19.73;;;;;;;2.35;100.00;101995.38;5084978;28;20033;-68
2022/12/03 05:51:04;;;;;;;36.00;19.50;;;;;;;2.36;100.00;101999.75;5074055;28;20031;-69
2022/12/03 05:53:29;;;;;;;33.45;19.25;;;;;;;2.35;100.00;102001.56;5074174;28;20443;-68
2022/12/03 05:55:54;;;;;;;36.97;20.00;;;;;;;2.36;100.00;101995.25;5073646;28;20033;-68
2022/12/03 05:58:19;;;;;;;38.35;20.30;;;;;;;2.39;100.00;101997.63;5088857;28;20133;-69
2022/12/03 06:00:45;;;;;;;35.40;20.30;;;;;;;2.41;100.00;101992.16;5070339;28;20031;-69
2022/12/03 06:03:10;;;;;;;36.83;19.90;;;;;;;2.42;100.00;101993.84;5074140;28;20078;-69
2022/12/03 06:05:35;;;;;;;34.78;19.80;;;;;;;2.41;100.00;101994.81;5074717;28;20032;-70
2022/12/03 06:08:01;;;;;;;35.72;20.45;;;;;;;2.40;100.00;101993.97;5093361;28;20029;-67
2022/12/03 06:10:27;;;;;;;34.03;20.27;;;;;;;2.40;100.00;101993.13;5095803;28;20063;-67
2022/12/03 06:12:52;;;;;;;37.58;20.80;;;;;;;2.39;100.00;101994.13;5084127;28;20032;-68
2022/12/03 06:15:19;;;;;;;35.78;19.15;;;;;;;2.38;100.00;102000.44;5072801;28;20031;-68
2022/12/03 06:17:44;;;;;;;37.75;20.30;;;;;;;2.34;100.00;101989.22;5072181;28;20036;-69
2022/12/03 06:20:13;;;;;;;38.75;23.85;;;;;;;2.35;100.00;101990.03;5072511;28;20512;-69
2022/12/03 06:22:38;;;;;;;39.92;22.80;;;;;;;2.36;100.00;101991.75;5073439;28;20115;-68
2022/12/03 06:25:04;;;;;;;35.15;20.63;;;;;;;2.34;100.00;101983.88;5073209;28;20111;-69
2022/12/03 06:27:30;;;;;;;35.95;20.75;;;;;;;2.36;100.00;101987.22;5072802;28;20029;-68
2022/12/03 06:29:55;;;;;;;37.20;20.67;;;;;;;2.38;100.00;101985.25;5087495;28;20031;-68
2022/12/03 06:32:20;;;;;;;40.78;21.95;;;;;;;2.39;100.00;101991.44;5087684;28;20486;-68
2022/12/03 06:34:46;;;;;;;39.90;22.40;;;;;;;2.36;100.00;101999.75;5071992;28;20028;-69
2022/12/03 06:37:11;;;;;;;35.17;20.45;;;;;;;2.36;100.00;101994.41;5073081;28;20052;-68
2022/12/03 06:39:36;;;;;;;34.72;19.65;;;;;;;2.32;100.00;101993.84;5073136;28;20071;-69
2022/12/03 06:42:01;;;;;;;37.63;21.40;;;;;;;2.34;100.00;101999.91;5072875;28;20442;-69
2022/12/03 06:44:27;;;;;;;39.00;21.27;;;;;;;2.35;100.00;101996.22;5071600;28;20032;-70
2022/12/03 06:46:52;;;;;;;37.58;21.35;;;;;;;2.35;100.00;101998.06;5075084;28;20456;-68
2022/12/03 06:49:17;;;;;;;37.70;20.02;;;;;;;2.37;100.00;101996.06;5090469;28;20028;-68
2022/12/03 06:51:43;;;;;;;36.67;21.23;;;;;;;2.38;100.00;101995.09;5092961;28;20063;-70
2022/12/03 06:54:08;;;;;;;38.33;20.17;;;;;;;2.38;100.00;101982.56;5093112;28;20451;-69
2022/12/03 06:56:34;;;;;;;37.78;21.20;;;;;;;2.40;100.00;101982.44;5073691;28;20540;-67
2022/12/03 06:58:59;;;;;;;36.38;19.85;;;;;;;2.35;100.00;101988.19;5072688;28;20035;-69
2022/12/03 07:01:24;;;;;;;36.17;20.70;;;;;;;2.33;100.00;101986.69;5070522;28;20039;-68
2022/12/03 07:03:49;;;;;;;35.85;20.15;;;;;;;2.32;100.00;101985.00;5070363;28;20360;-69
2022/12/03 07:06:15;;;;;;;37.05;20.77;;;;;;;2.36;100.00;101986.41;5072847;28;20032;-69
2022/12/03 07:08:40;;;;;;;41.10;22.23;;;;;;;2.37;100.00;101982.72;5072687;28;20089;-68
2022/12/03 07:11:29;;;;;;;38.22;21.05;;;;;;;2.35;100.00;101990.03;5072520;28;20021;-69
2022/12/03 07:13:55;;;;;;;53.95;28.60;;;;;;;2.34;100.00;101978.53;5070834;28;20079;-69
2022/12/03 07:16:20;;;;;;;35.85;19.95;;;;;;;2.34;100.00;101994.56;5072635;28;20060;-68
2022/12/03 07:18:45;;;;;;;48.28;24.95;;;;;;;2.33;100.00;101994.69;5071517;28;20431;-69
2022/12/03 07:21:11;;;;;;;39.53;21.50;;;;;;;2.34;100.00;101991.03;5072340;28;20074;-69
2022/12/03 07:23:36;;;;;;;37.15;19.70;;;;;;;2.36;100.00;101984.56;5086224;28;20037;-69
2022/12/03 07:26:01;;;;;;;34.40;19.83;;;;;;;2.35;100.00;101987.38;5086661;28;20067;-68
2022/12/03 07:28:26;;;;;;;33.85;19.05;;;;;;;2.34;100.00;101988.34;5092209;28;20060;-68
2022/12/03 07:30:52;;;;;;;36.25;19.80;;;;;;;2.30;100.00;101983.28;5092472;28;20026;-69
2022/12/03 07:33:17;;;;;;;34.63;19.52;;;;;;;2.33;100.00;101992.84;5077966;28;20629;-69
2022/12/03 07:35:42;;;;;;;36.65;20.27;;;;;;;2.31;100.00;101981.50;5072474;28;20103;-69
2022/12/03 07:38:07;;;;;;;37.55;20.88;;;;;;;2.32;100.00;101980.47;5072503;28;20063;-68
2022/12/03 07:40:33;;;;;;;37.28;19.23;;;;;;;2.28;100.00;101987.94;5075779;28;20036;-68
2022/12/03 07:42:58;;;;;;;35.15;18.80;;;;;;;2.29;100.00;101986.97;5080472;28;20360;-68
2022/12/03 07:45:23;;;;;;;36.50;19.98;;;;;;;2.30;100.00;101982.47;5071118;28;20024;-68
2022/12/03 07:47:48;;;;;;;35.40;18.88;;;;;;;2.27;100.00;101991.59;5072603;28;20020;-69
2022/12/03 07:50:14;;;;;;;37.70;19.42;;;;;;;2.30;100.00;101982.47;5071949;28;20032;-70
2022/12/03 07:52:39;;;;;;;35.38;18.88;;;;;;;2.30;100.00;101991.31;5071346;28;20025;-69
2022/12/03 07:55:05;;;;;;;36.13;18.85;;;;;;;2.32;100.00;101993.00;5070943;28;20028;-71
2022/12/03 07:57:30;;;;;;;36.33;19.95;;;;;;;2.32;100.00;101985.00;5071951;28;20029;-69
2022/12/03 07:59:55;;;;;;;34.53;18.88;;;;;;;2.33;100.00;102000.03;5072056;28;20029;-70
2022/12/03 08:02:21;;;;;;;35.35;19.40;;;;;;;2.32;100.00;101988.50;5068723;28;20032;-71
2022/12/03 08:04:46;;;;;;;37.28;18.73;;;;;;;2.34;100.00;101994.56;5072163;28;20107;-71
2022/12/03 08:07:11;;;;;;;35.10;18.65;;;;;;;2.36;100.00;101997.09;5070640;28;20033;-70
2022/12/03 08:09:38;;;;;;;38.03;18.35;;;;;;;2.35;100.00;101992.72;5072173;28;20475;-70
2022/12/03 08:12:13;;;;;;;37.72;18.38;;;;;;;2.39;100.00;101994.97;5080993;28;20035;-71
2022/12/03 08:14:38;;;;;;;35.63;18.38;;;;;;;2.39;100.00;101991.44;5092527;28;20115;-71
2022/12/03 08:17:10;;;;;;;38.03;19.40;;;;;;;2.39;100.00;101996.78;5091724;28;20107;-72
2022/12/03 08:19:35;;;;;;;;;;;;;;;2.46;100.00;101997.88;5092405;28;20536;-69
2022/12/03 08:22:01;;;;;;;35.20;17.10;;;;;;;2.45;100.00;101998.91;5074696;28;19998;-70
2022/12/03 08:24:26;;;;;;;34.40;17.38;;;;;;;2.46;100.00;102000.56;5072023;28;20111;-69
2022/12/03 08:26:51;;;;;;;35.30;18.10;;;;;;;2.44;100.00;101994.53;5070959;28;20040;-70
2022/12/03 08:29:18;;;;;;;36.22;17.85;;;;;;;2.45;100.00;101998.91;5071727;28;20145;-71
2022/12/03 08:31:50;;;;;;;34.25;18.50;;;;;;;2.46;100.00;101997.88;5071738;28;20089;-70
2022/12/03 08:34:27;;;;;;;39.90;20.45;;;;;;;2.43;100.00;102003.50;5091904;28;20121;-70
2022/12/03 08:36:58;;;;;;;34.60;17.92;;;;;;;2.38;100.00;102003.13;5094389;28;20024;-71
2022/12/03 08:39:34;;;;;;;37.83;18.25;;;;;;;2.37;100.00;102004.09;5095836;28;20084;-70
2022/12/03 08:45:27;;;;;;;38.17;19.42;;;;;;;2.41;100.00;102000.16;5075292;28;20544;-70
2022/12/03 08:48:06;;;;;;;38.05;19.00;;;;;;;2.40;100.00;101995.78;5087107;28;20067;-70
2022/12/03 08:50:37;;;;;;;37.20;20.60;;;;;;;2.42;100.00;101999.19;5083876;28;20029;-70
2022/12/03 08:53:22;;;;;;;35.42;18.90;;;;;;;2.45;100.00;101990.88;5073775;28;20427;-71
2022/12/03 08:55:51;;;;;;;38.70;18.70;;;;;;;2.45;100.00;101998.91;5075324;28;20418;-69
2022/12/03 08:58:22;;;;;;;42.10;20.77;;;;;;;2.47;100.00;101991.56;5074664;28;20352;-70
2022/12/03 09:00:55;;;;;;;32.33;17.42;;;;;;;2.45;100.00;101991.72;5070970;28;20090;-70
2022/12/03 09:03:20;;;;;;;38.22;20.27;;;;;;;2.44;100.00;101995.34;5090871;28;20071;-70
2022/12/03 09:05:46;;;;;;;36.72;19.83;;;;;;;2.44;100.00;101991.84;5074321;28;20032;-69
2022/12/03 09:08:11;;;;;;;36.33;19.40;;;;;;;2.50;100.00;102001.13;5074816;28;20032;-70
2022/12/03 09:10:36;;;;;;;36.88;18.88;;;;;;;2.53;100.00;101993.66;5073828;28;20029;-70
2022/12/03 09:13:01;;;;;;;37.92;19.23;;;;;;;2.50;100.00;101993.94;5074439;28;20407;-71
2022/12/03 09:15:27;;;;;;;34.28;18.35;;;;;;;2.46;100.00;101996.06;5090468;28;20059;-70
2022/12/03 09:17:52;;;;;;;34.47;19.08;;;;;;;2.43;100.00;101996.38;5074622;28;20056;-69
2022/12/03 09:20:18;;;;;;;35.78;18.63;;;;;;;2.42;100.00;101999.19;5081094;28;20457;-69
2022/12/03 09:22:43;;;;;;;36.58;18.73;;;;;;;2.41;100.00;101994.81;5072270;28;20056;-70
2022/12/03 09:25:08;;;;;;;33.88;18.17;;;;;;;2.38;100.00;101998.59;5074528;28;20127;-70
2022/12/03 09:27:34;;;;;;;41.95;20.58;;;;;;;2.38;100.00;102001.28;5081574;28;20027;-70
2022/12/03 09:29:59;;;;;;;38.75;19.05;;;;;;;2.38;100.00;102003.13;5094593;28;20085;-69
2022/12/03 09:32:25;;;;;;;38.10;18.52;;;;;;;2.40;100.00;101998.47;5092272;28;20067;-70
2022/12/03 09:34:50;;;;;;;39.72;18.77;;;;;;;2.41;100.00;101995.66;5094634;28;20042;-69
2022/12/03 09:37:15;;;;;;;37.78;19.13;;;;;;;2.39;100.00;101994.97;5094194;28;20059;-70
2022/12/03 09:39:41;;;;;;;40.08;19.65;;;;;;;2.39;100.00;101994.13;5094695;28;20076;-69
2022/12/03 09:42:06;;;;;;;35.90;17.65;;;;;;;2.41;100.00;101992.16;5066285;28;20029;-69
2022/12/03 09:44:33;;;;;;;36.65;18.40;;;;;;;2.43;100.00;102001.72;5054416;28;20412;-69
2022/12/03 09:47:00;;;;;;;34.45;17.95;;;;;;;2.44;100.00;101997.19;5076705;28;20031;-70
2022/12/03 09:49:27;;;;;;;39.67;18.25;;;;;;;2.44;100.00;101991.84;5093042;28;20031;-69
2022/12/03 09:51:56;;;;;;;34.58;18.20;;;;;;;2.41;100.00;101987.63;5080856;28;20028;-69
2022/12/03 09:54:24;;;;;;;37.63;18.98;;;;;;;2.41;100.00;101984.13;5073663;28;20441;-69
2022/12/03 09:56:51;;;;;;;40.45;19.77;;;;;;;2.37;100.00;101978.25;5074176;28;20100;-69
2022/12/03 09:59:17;;;;;;;37.38;19.33;;;;;;;2.36;100.00;101976.53;5073851;28;20083;-69
2022/12/03 10:01:42;;;;;;;38.78;18.40;;;;;;;2.36;100.00;101973.88;5069041;28;20538;-69
2022/12/03 10:04:08;;;;;;;36.13;18.02;;;;;;;2.35;100.00;101976.69;5089977;28;20036;-70
2022/12/03 10:06:34;;;;;;;36.83;17.45;;;;;;;2.35;100.00;101984.69;5094125;28;20028;-69
2022/12/03 10:08:59;;;;;;;37.35;17.67;;;;;;;2.32;100.00;101975.13;5092747;28;20020;-69
2022/12/03 10:11:26;;;;;;;35.22;16.55;;;;;;;2.34;100.00;101977.66;5084909;28;20028;-69
2022/12/03 10:13:56;;;;;;;32.08;15.77;;;;;;;2.36;100.00;101971.19;5073724;28;20108;-70
2022/12/03 10:16:22;;;;;;;30.60;15.48;;;;;;;2.35;100.00;101971.34;5073451;28;20025;-70
2022/12/03 10:18:53;;;;;;;33.05;16.08;;;;;;;2.37;100.00;101962.22;5080049;28;20040;-70
2022/12/03 10:21:24;;;;;;;31.75;15.52;;;;;;;2.38;100.00;101963.88;5085264;28;20091;-70
2022/12/03 10:24:15;;;;;;;29.67;16.05;;;;;;;2.42;100.00;101964.44;5073499;28;20360;-70
2022/12/03 10:26:43;;;;;;;30.97;14.87;;;;;;;2.38;100.00;101958.53;5080763;28;20063;-69
2022/12/03 10:29:15;;;;;;;30.65;15.07;;;;;;;2.38;100.00;101953.19;5093431;28;20314;-69
2022/12/03 10:31:41;;;;;;;32.00;14.40;;;;;;;2.41;100.00;101952.06;5075946;28;20025;-69
2022/12/03 10:34:08;;;;;;;30.17;15.00;;;;;;;2.42;100.00;101957.25;5053265;28;20036;-71
2022/12/03 10:36:33;;;;;;;31.48;15.00;;;;;;;2.44;100.00;101941.94;5073187;28;20036;-70
2022/12/03 10:39:19;;;;;;;28.17;14.85;;;;;;;2.51;100.00;101938.66;5093408;28;20074;-70
2022/12/03 10:41:44;;;;;;;27.98;14.05;;;;;;;2.47;100.00;101936.28;5092900;28;20290;-69
2022/12/03 10:44:20;;;;;;;31.77;15.88;;;;;;;2.52;100.00;101927.00;5106117;28;20031;-71
2022/12/03 10:47:04;;;;;;;31.02;14.40;;;;;;;2.50;100.00;101929.81;5089101;28;20024;-69
2022/12/03 10:49:30;;;;;;;26.38;15.20;;;;;;;2.46;100.00;101933.75;5053124;28;20024;-70
2022/12/03 10:51:55;;;;;;;31.42;16.48;;;;;;;2.44;100.00;101925.91;5056753;28;20032;-69
2022/12/03 10:54:23;;;;;;;33.70;16.92;;;;;;;2.42;100.00;101921.72;5064598;28;20028;-70
2022/12/03 10:56:50;;;;;;;35.60;17.33;;;;;;;2.43;100.00;101918.03;5072719;28;20471;-70
2022/12/03 10:59:18;;;;;;;31.30;15.52;;;;;;;2.44;100.00;101909.03;5058266;28;20108;-69
2022/12/03 11:01:44;;;;;;;31.75;16.27;;;;;;;2.44;100.00;101907.19;5090867;28;20036;-70
2022/12/03 11:04:18;;;;;;;29.52;15.75;;;;;;;2.45;100.00;101908.06;5082871;28;20042;-69
2022/12/03 11:06:43;;;;;;;31.10;15.73;;;;;;;2.44;100.00;101903.69;5069816;28;20942;-69
2022/12/03 11:09:25;;;;;;;27.70;15.40;;;;;;;2.51;100.00;101910.16;5051938;28;20029;-69
2022/12/03 11:11:51;;;;;;;27.15;14.90;;;;;;;2.50;97.62;101908.44;5053349;28;20063;-70
2022/12/03 11:14:47;;;;;;;30.30;15.88;;;;;;;2.56;100.00;101899.00;5052571;28;20052;-72
2022/12/03 11:17:33;;;;;;;30.17;14.98;;;;;;;2.54;96.59;101896.50;5067374;28;20028;-72
2022/12/03 11:19:58;;;;;;;24.98;13.35;;;;;;;2.58;98.08;101899.69;5068662;28;20036;-70
2022/12/03 11:22:39;;;;;;;29.90;14.95;;;;;;;2.62;99.09;101899.25;5071517;28;20383;-69
2022/12/03 11:25:27;;;;;;;28.80;14.17;;;;;;;2.66;99.74;101899.81;5058833;28;20498;-70
2022/12/03 11:28:11;;;;;;;28.50;16.15;;;;;;;2.66;100.00;101887.28;5085865;28;20075;-71
2022/12/03 11:30:48;;;;;;;32.22;15.65;;;;;;;2.66;96.49;101887.28;5076194;28;20085;-71
2022/12/03 11:33:39;;;;;;;28.95;15.63;;;;;;;2.62;96.09;101885.91;5061215;28;20028;-71